createdAt,value
2019-05-20T00:01:09.650Z,15.27
2019-05-20T00:03:38.061Z,15.23
2019-05-20T00:06:06.582Z,15.30
2019-05-20T00:08:35.015Z,15.13
2019-05-20T00:11:03.447Z,14.97
2019-05-20T00:13:31.943Z,19.57
2019-05-20T00:16:00.370Z,17.00
2019-05-20T00:18:28.778Z,14.97
2019-05-20T00:20:57.194Z,16.43
2019-05-20T00:23:25.612Z,16.00
2019-05-20T00:25:54.023Z,16.10
2019-05-20T00:28:22.433Z,14.73
2019-05-20T00:30:50.855Z,15.30
2019-05-20T00:33:19.267Z,14.53
2019-05-20T00:35:47.678Z,15.07
2019-05-20T00:38:16.102Z,14.30
2019-05-20T00:40:44.510Z,14.83
2019-05-20T00:43:12.931Z,15.33
2019-05-20T00:45:41.783Z,14.60
2019-05-20T00:48:10.203Z,14.67
2019-05-20T00:50:38.622Z,14.77
2019-05-20T00:53:07.101Z,15.30
2019-05-20T00:55:38.727Z,13.07
2019-05-20T00:58:07.157Z,14.80
2019-05-20T01:00:35.894Z,14.93
2019-05-20T01:03:04.318Z,16.13
2019-05-20T01:05:32.735Z,16.57
2019-05-20T01:08:01.150Z,17.03
2019-05-20T01:10:29.558Z,15.83
2019-05-20T01:12:58.035Z,15.03
2019-05-20T01:15:26.566Z,15.13
2019-05-20T01:17:55.022Z,15.43
2019-05-20T01:20:23.463Z,15.03
2019-05-20T01:22:51.894Z,14.80
2019-05-20T01:25:20.307Z,16.73
2019-05-20T01:27:48.717Z,14.23
2019-05-20T01:30:19.065Z,15.40
2019-05-20T01:32:47.493Z,15.03
2019-05-20T01:35:15.980Z,17.30
2019-05-20T01:37:44.399Z,15.37
2019-05-20T01:40:13.268Z,15.07
2019-05-20T01:42:41.766Z,15.30
2019-05-20T01:45:10.516Z,17.50
2019-05-20T01:47:38.929Z,14.13
2019-05-20T01:50:08.291Z,15.63
2019-05-20T01:52:36.714Z,15.40
2019-05-20T01:55:06.761Z,14.77
2019-05-20T01:57:35.183Z,14.87
2019-05-20T02:00:05.714Z,16.37
2019-05-20T02:02:34.150Z,17.48
2019-05-20T02:05:02.630Z,15.77
2019-05-20T02:07:31.045Z,17.47
2019-05-20T02:09:59.465Z,15.87
2019-05-20T02:12:27.884Z,14.80
2019-05-20T02:15:00.682Z,14.43
2019-05-20T02:17:29.110Z,14.57
2019-05-20T02:19:57.557Z,14.73
2019-05-20T02:22:25.984Z,17.03
2019-05-20T02:24:54.396Z,16.87
2019-05-20T02:27:22.907Z,14.23
2019-05-20T02:29:51.328Z,16.00
2019-05-20T02:32:19.754Z,13.13
2019-05-20T02:34:48.170Z,14.20
2019-05-20T02:37:16.608Z,15.20
2019-05-20T02:39:45.017Z,14.07
2019-05-20T02:42:13.433Z,15.67
2019-05-20T02:44:41.917Z,14.50
2019-05-20T02:47:10.629Z,15.13
2019-05-20T02:49:39.033Z,15.27
2019-05-20T02:52:07.447Z,14.10
2019-05-20T02:54:35.869Z,13.80
2019-05-20T02:57:04.393Z,16.17
2019-05-20T02:59:32.819Z,13.67
2019-05-20T03:02:01.224Z,14.70
2019-05-20T03:04:29.646Z,14.00
2019-05-20T03:06:58.067Z,15.23
2019-05-20T03:09:26.479Z,13.77
2019-05-20T03:11:54.969Z,14.73
2019-05-20T03:14:23.448Z,13.63
2019-05-20T03:16:51.864Z,13.97
2019-05-20T03:19:20.301Z,14.93
2019-05-20T03:21:48.706Z,14.37
2019-05-20T03:24:17.124Z,15.30
2019-05-20T03:26:45.785Z,14.53
2019-05-20T03:29:14.197Z,13.83
2019-05-20T03:31:42.618Z,15.03
2019-05-20T03:34:38.869Z,15.93
2019-05-20T03:36:41.354Z,18.60
2019-05-20T03:39:09.771Z,14.10
2019-05-20T03:41:38.179Z,17.40
2019-05-20T03:44:06.594Z,14.73
2019-05-20T03:46:35.019Z,14.57
2019-05-20T03:49:03.446Z,14.83
2019-05-20T03:51:31.924Z,15.87
2019-05-20T03:54:00.344Z,14.37
2019-05-20T03:56:28.750Z,14.57
2019-05-20T03:58:57.166Z,12.60
2019-05-20T04:01:25.623Z,15.60
2019-05-20T04:03:54.041Z,18.33
2019-05-20T04:06:22.456Z,14.70
2019-05-20T04:08:50.983Z,15.97
2019-05-20T04:11:19.396Z,14.80
2019-05-20T04:13:47.818Z,13.90
2019-05-20T04:16:16.291Z,14.23
2019-05-20T04:18:44.712Z,12.97
2019-05-20T04:21:13.124Z,12.70
2019-05-20T04:23:41.610Z,15.10
2019-05-20T04:26:10.080Z,15.00
2019-05-20T04:28:38.513Z,14.00
2019-05-20T04:31:06.937Z,15.00
2019-05-20T04:33:35.389Z,12.43
2019-05-20T04:36:03.847Z,11.87
2019-05-20T04:38:32.327Z,12.13
2019-05-20T04:41:00.763Z,11.77
2019-05-20T04:43:29.172Z,11.33
2019-05-20T04:45:57.599Z,15.50
2019-05-20T04:48:26.020Z,12.83
2019-05-20T04:50:54.440Z,12.70
2019-05-20T04:53:22.851Z,11.60
2019-05-20T04:55:51.272Z,12.70
2019-05-20T04:58:19.683Z,10.93
2019-05-20T05:00:51.252Z,10.80
2019-05-20T05:03:19.731Z,13.63
2019-05-20T05:05:49.998Z,11.40
2019-05-20T05:08:20.420Z,11.83
2019-05-20T05:10:49.380Z,11.37
2019-05-20T05:13:17.849Z,10.90
2019-05-20T05:15:46.527Z,10.10
2019-05-20T05:18:15.015Z,10.83
2019-05-20T05:20:43.423Z,9.60
2019-05-20T05:23:11.973Z,9.77
2019-05-20T05:25:40.400Z,11.07
2019-05-20T05:28:08.814Z,10.90
2019-05-20T05:30:37.740Z,9.63
2019-05-20T05:33:06.211Z,10.03
2019-05-20T05:35:34.687Z,11.70
2019-05-20T05:38:03.381Z,12.10
2019-05-20T05:40:32.410Z,9.23
2019-05-20T05:43:00.822Z,9.53
2019-05-20T05:45:31.417Z,9.00
2019-05-20T05:48:00.233Z,9.17
2019-05-20T05:50:29.178Z,8.73
2019-05-20T05:52:57.650Z,8.40
2019-05-20T05:55:26.600Z,7.70
2019-05-20T05:57:55.017Z,9.20
2019-05-20T06:00:23.617Z,7.83
2019-05-20T06:02:52.022Z,10.13
2019-05-20T06:05:20.442Z,8.17
2019-05-20T06:07:48.863Z,9.23
2019-05-20T06:10:17.607Z,8.30
2019-05-20T06:12:46.021Z,9.50
2019-05-20T06:15:14.978Z,7.87
2019-05-20T06:17:43.409Z,9.00
2019-05-20T06:20:12.648Z,9.87
2019-05-20T06:22:41.158Z,8.50
2019-05-20T06:25:10.062Z,9.40
2019-05-20T06:27:38.518Z,7.67
2019-05-20T06:30:11.921Z,7.40
2019-05-20T06:32:40.622Z,7.30
2019-05-20T06:35:11.019Z,7.60
2019-05-20T06:37:44.063Z,8.07
2019-05-20T06:40:12.852Z,7.60
2019-05-20T06:42:41.311Z,7.47
2019-05-20T06:45:10.159Z,7.80
2019-05-20T06:47:38.570Z,8.13
2019-05-20T06:50:08.428Z,8.37
2019-05-20T06:52:36.844Z,8.77
2019-05-20T06:55:08.192Z,9.37
2019-05-20T06:57:36.724Z,7.80
2019-05-20T07:00:09.630Z,9.30
2019-05-20T07:02:38.054Z,9.33
2019-05-20T07:05:08.295Z,10.57
2019-05-20T07:07:36.724Z,10.57
2019-05-20T07:10:08.861Z,13.37
2019-05-20T07:12:41.292Z,10.77
2019-05-20T07:15:07.860Z,12.17
2019-05-20T07:17:36.360Z,11.87
2019-05-20T07:20:06.172Z,11.23
2019-05-20T07:22:34.665Z,10.60
2019-05-20T07:25:03.453Z,16.43
2019-05-20T07:27:31.922Z,11.23
2019-05-20T07:30:00.344Z,11.50
2019-05-20T07:32:28.831Z,14.27
2019-05-20T07:34:57.372Z,11.83
2019-05-20T07:37:25.812Z,11.40
2019-05-20T07:39:54.265Z,9.97
2019-05-20T07:42:22.698Z,9.37
2019-05-20T07:44:51.117Z,10.47
2019-05-20T07:47:20.235Z,8.40
2019-05-20T07:49:49.593Z,9.03
2019-05-20T07:52:18.548Z,8.57
2019-05-20T07:54:47.899Z,7.93
2019-05-20T07:57:18.523Z,8.03
2019-05-20T07:59:49.973Z,8.57
2019-05-20T08:02:18.632Z,9.73
2019-05-20T08:04:47.132Z,10.87
2019-05-20T08:07:27.649Z,8.43
2019-05-20T08:09:46.649Z,8.93
2019-05-20T08:12:15.295Z,10.23
2019-05-20T08:14:43.787Z,8.40
2019-05-20T08:17:12.349Z,9.53
2019-05-20T08:19:40.823Z,9.03
2019-05-20T08:22:09.541Z,10.13
2019-05-20T08:24:37.986Z,8.97
2019-05-20T08:27:06.558Z,8.43
2019-05-20T08:29:35.031Z,8.77
2019-05-20T08:32:03.819Z,9.30
2019-05-20T08:34:32.825Z,7.50
2019-05-20T08:37:02.131Z,8.00
2019-05-20T08:39:42.679Z,7.30
2019-05-20T08:42:11.245Z,6.43
2019-05-20T08:44:39.711Z,6.63
2019-05-20T08:47:08.147Z,6.70
2019-05-20T08:49:36.602Z,6.80
2019-05-20T08:52:05.067Z,7.07
2019-05-20T08:54:33.484Z,6.40
2019-05-20T08:57:01.898Z,6.30
2019-05-20T08:59:30.308Z,7.27
2019-05-20T09:01:58.772Z,6.13
2019-05-20T09:04:27.182Z,6.80
2019-05-20T09:06:55.603Z,7.60
2019-05-20T09:09:24.119Z,7.23
2019-05-20T09:11:52.588Z,6.87
2019-05-20T09:14:21.017Z,7.33
2019-05-20T09:16:49.419Z,6.55
2019-05-20T09:19:18.101Z,7.45
2019-05-20T09:21:46.743Z,8.93
2019-05-20T09:24:18.662Z,7.97
2019-05-20T09:26:49.795Z,9.93
2019-05-20T09:29:30.550Z,9.53
2019-05-20T09:32:00.040Z,10.30
2019-05-20T09:34:29.481Z,9.23
2019-05-20T09:36:57.964Z,7.67
2019-05-20T09:39:26.451Z,7.60
2019-05-20T09:41:54.864Z,7.13
2019-05-20T09:44:23.354Z,8.37
2019-05-20T09:46:51.767Z,8.80
2019-05-20T09:49:20.178Z,8.07
2019-05-20T09:51:48.599Z,8.60
2019-05-20T09:54:17.031Z,7.27
2019-05-20T09:56:45.417Z,7.83
2019-05-20T09:59:16.312Z,7.60
2019-05-20T10:01:43.967Z,8.00
2019-05-20T10:04:12.381Z,8.00
2019-05-20T10:06:40.786Z,8.77
2019-05-20T10:09:09.195Z,7.47
2019-05-20T10:11:37.701Z,7.33
2019-05-20T10:14:06.211Z,8.87
2019-05-20T10:16:34.621Z,7.70
2019-05-20T10:19:03.107Z,7.70
2019-05-20T10:21:31.573Z,8.13
2019-05-20T10:23:59.982Z,8.93
2019-05-20T10:26:28.386Z,8.93
2019-05-20T10:28:56.805Z,8.10
2019-05-20T10:31:25.240Z,11.27
2019-05-20T10:33:53.800Z,9.70
2019-05-20T10:36:22.406Z,9.60
2019-05-20T10:38:58.539Z,10.63
2019-05-20T10:41:21.071Z,13.03
2019-05-20T10:43:49.510Z,8.40
2019-05-20T10:46:17.912Z,8.50
2019-05-20T10:48:46.622Z,8.50
2019-05-20T10:51:15.087Z,8.40
2019-05-20T10:53:43.495Z,9.00
2019-05-20T10:56:12.410Z,7.57
2019-05-20T10:58:41.057Z,9.83
2019-05-20T11:01:09.456Z,8.77
2019-05-20T11:03:37.971Z,10.28
2019-05-20T11:06:06.424Z,9.05
2019-05-20T11:08:34.894Z,9.70
2019-05-20T11:11:03.373Z,9.63
2019-05-20T11:13:31.807Z,9.60
2019-05-20T11:16:00.218Z,8.43
2019-05-20T11:18:28.764Z,8.90
2019-05-20T11:20:57.169Z,9.40
2019-05-20T11:23:25.612Z,8.43
2019-05-20T11:25:54.020Z,7.77
2019-05-20T11:28:22.527Z,9.18
2019-05-20T11:30:50.923Z,9.35
2019-05-20T11:33:19.342Z,9.15
2019-05-20T11:35:47.747Z,9.75
2019-05-20T11:38:16.814Z,10.05
2019-05-20T11:40:46.186Z,8.97
2019-05-20T11:43:14.661Z,11.55
2019-05-20T11:45:43.106Z,10.00
2019-05-20T11:48:11.528Z,10.68
2019-05-20T11:50:40.603Z,10.43
2019-05-20T11:53:09.028Z,10.43
2019-05-20T11:55:37.498Z,10.50
2019-05-20T11:58:15.102Z,12.50
2019-05-20T12:00:36.123Z,11.67
2019-05-20T12:03:04.539Z,10.87
2019-05-20T12:05:32.952Z,12.00
2019-05-20T12:08:01.358Z,11.80
2019-05-20T12:10:29.779Z,12.50
2019-05-20T12:12:58.180Z,10.90
2019-05-20T12:15:26.628Z,11.83
2019-05-20T12:17:55.031Z,11.37
2019-05-20T12:20:23.447Z,11.53
2019-05-20T12:22:51.862Z,12.10
2019-05-20T12:25:20.279Z,12.13
2019-05-20T12:27:48.687Z,10.93
2019-05-20T12:30:18.055Z,13.80
2019-05-20T12:32:46.625Z,13.00
2019-05-20T12:35:15.062Z,15.18
2019-05-20T12:37:45.621Z,14.13
2019-05-20T12:40:14.125Z,14.75
2019-05-20T12:42:42.534Z,14.10
2019-05-20T12:45:11.303Z,13.85
2019-05-20T12:47:39.711Z,13.20
2019-05-20T12:50:08.814Z,14.47
2019-05-20T12:52:37.305Z,17.42
2019-05-20T12:55:09.649Z,14.28
2019-05-20T12:57:36.830Z,15.00
2019-05-20T13:00:10.684Z,15.00
2019-05-20T13:02:39.654Z,14.90
2019-05-20T13:05:08.627Z,15.37
2019-05-20T13:07:37.123Z,17.43
2019-05-20T13:10:26.520Z,15.90
2019-05-20T13:12:38.054Z,16.43
2019-05-20T13:15:07.716Z,17.80
2019-05-20T13:17:36.176Z,17.60
2019-05-20T13:20:05.678Z,18.53
2019-05-20T13:22:34.120Z,20.50
2019-05-20T13:25:02.615Z,17.67
2019-05-20T13:27:31.105Z,18.13
2019-05-20T13:29:59.524Z,17.00
2019-05-20T13:32:28.074Z,16.07
2019-05-20T13:34:56.698Z,19.00
2019-05-20T13:37:25.135Z,17.43
2019-05-20T13:39:53.776Z,18.90
2019-05-20T13:42:22.188Z,18.50
2019-05-20T13:44:50.617Z,18.73
2019-05-20T13:47:19.026Z,17.50
2019-05-20T13:49:47.500Z,17.53
2019-05-20T13:52:15.950Z,19.10
2019-05-20T13:54:44.401Z,20.07
2019-05-20T13:57:13.515Z,19.33
2019-05-20T13:59:42.045Z,21.57
2019-05-20T14:02:10.459Z,20.57
2019-05-20T14:04:38.887Z,22.00
2019-05-20T14:07:07.328Z,22.20
2019-05-20T14:09:35.742Z,21.17
2019-05-20T14:12:04.231Z,22.70
2019-05-20T14:14:32.655Z,22.17
2019-05-20T14:17:01.083Z,20.93
2019-05-20T14:19:29.515Z,19.37
2019-05-20T14:21:57.925Z,20.73
2019-05-20T14:24:26.359Z,20.43
2019-05-20T14:26:54.780Z,21.37
2019-05-20T14:29:23.198Z,23.30
2019-05-20T14:31:51.635Z,20.60
2019-05-20T14:34:20.132Z,21.90
2019-05-20T14:36:52.632Z,21.10
2019-05-20T14:39:19.025Z,20.90
2019-05-20T14:41:47.450Z,23.97
2019-05-20T14:44:15.859Z,20.40
2019-05-20T14:46:44.278Z,19.80
2019-05-20T14:49:12.695Z,15.10
2019-05-20T14:51:41.152Z,13.67
2019-05-20T14:54:09.564Z,11.00
2019-05-20T14:56:37.982Z,11.93
2019-05-20T14:59:06.399Z,10.30
2019-05-20T15:01:34.848Z,9.90
2019-05-20T15:04:03.256Z,10.63
2019-05-20T15:06:31.671Z,14.63
2019-05-20T15:09:00.101Z,14.20
2019-05-20T15:11:37.666Z,10.40
2019-05-20T15:14:00.385Z,12.03
2019-05-20T15:16:28.867Z,9.27
2019-05-20T15:18:57.271Z,5.07
2019-05-20T15:21:28.919Z,5.57
2019-05-20T15:23:55.838Z,6.63
2019-05-20T15:26:24.277Z,5.87
2019-05-20T15:28:52.687Z,10.10
2019-05-20T15:31:21.097Z,7.13
2019-05-20T15:33:49.501Z,9.10
2019-05-20T15:36:18.048Z,5.43
2019-05-20T15:38:46.575Z,9.47
2019-05-20T15:41:14.992Z,16.53
2019-05-20T15:43:43.410Z,10.17
2019-05-20T15:46:11.819Z,7.73
2019-05-20T15:48:40.240Z,6.20
2019-05-20T15:51:08.648Z,6.40
2019-05-20T15:53:37.094Z,7.37
2019-05-20T15:56:05.521Z,6.93
2019-05-20T15:58:33.935Z,9.47
2019-05-20T16:01:02.345Z,7.17
2019-05-20T16:03:30.763Z,6.30
2019-05-20T16:06:00.086Z,6.80
2019-05-20T16:08:28.822Z,6.40
2019-05-20T16:10:57.267Z,6.60
2019-05-20T16:13:25.685Z,8.13
2019-05-20T16:15:54.086Z,7.27
2019-05-20T16:18:22.505Z,7.10
2019-05-20T16:20:51.131Z,7.40
2019-05-20T16:23:19.578Z,7.73
2019-05-20T16:25:48.250Z,7.30
2019-05-20T16:28:16.691Z,10.13
2019-05-20T16:30:45.111Z,10.93
2019-05-20T16:33:13.537Z,9.50
2019-05-20T16:35:41.959Z,8.97
2019-05-20T16:38:10.378Z,9.83
2019-05-20T16:40:38.794Z,10.17
2019-05-20T16:43:07.212Z,8.93
2019-05-20T16:45:35.625Z,8.20
2019-05-20T16:48:04.138Z,8.13
2019-05-20T16:50:32.542Z,10.20
2019-05-20T16:53:01.018Z,13.67
2019-05-20T16:55:29.436Z,12.30
2019-05-20T16:57:58.029Z,12.43
2019-05-20T17:00:31.898Z,11.43
2019-05-20T17:02:56.641Z,9.37
2019-05-20T17:05:25.045Z,10.67
2019-05-20T17:07:53.483Z,10.00
2019-05-20T17:10:21.901Z,10.27
2019-05-20T17:12:50.419Z,8.97
2019-05-20T17:15:18.885Z,9.03
2019-05-20T17:17:47.325Z,8.57
2019-05-20T17:20:16.320Z,11.23
2019-05-20T17:22:44.735Z,8.67
2019-05-20T17:25:13.283Z,10.00
2019-05-20T17:27:41.703Z,8.43
2019-05-20T17:30:11.470Z,7.97
2019-05-20T17:32:40.001Z,8.43
2019-05-20T17:35:08.653Z,10.60
2019-05-20T17:37:37.214Z,7.47
2019-05-20T17:40:08.053Z,7.70
2019-05-20T17:42:36.470Z,7.50
2019-05-20T17:45:07.026Z,7.50
2019-05-20T17:47:35.511Z,8.50
2019-05-20T17:50:05.938Z,7.73
2019-05-20T17:52:34.398Z,7.23
2019-05-20T17:55:02.863Z,7.67
2019-05-20T17:57:31.382Z,7.87
2019-05-20T17:59:59.846Z,7.30
2019-05-20T18:02:28.376Z,7.13
2019-05-20T18:04:56.844Z,6.47
2019-05-20T18:07:25.250Z,6.73
2019-05-20T18:09:55.337Z,6.73
2019-05-20T18:12:23.737Z,6.63
2019-05-20T18:14:53.796Z,6.57
2019-05-20T18:17:22.277Z,7.47
2019-05-20T18:19:50.706Z,6.53
2019-05-20T18:22:19.129Z,7.30
2019-05-20T18:24:47.716Z,7.70
2019-05-20T18:27:16.333Z,6.77
2019-05-20T18:29:44.927Z,5.93
2019-05-20T18:32:13.664Z,6.40
2019-05-20T18:34:42.308Z,5.87
2019-05-20T18:37:11.234Z,6.37
2019-05-20T18:39:39.726Z,6.93
2019-05-20T18:42:08.135Z,6.53
2019-05-20T18:44:36.633Z,7.10
2019-05-20T18:47:05.115Z,7.80
2019-05-20T18:49:33.539Z,7.77
2019-05-20T18:52:01.948Z,6.90
2019-05-20T18:54:30.374Z,8.27
2019-05-20T18:56:59.028Z,7.00
2019-05-20T18:59:27.553Z,7.70
2019-05-20T19:02:04.812Z,7.73
2019-05-20T19:04:26.120Z,9.30
2019-05-20T19:06:54.523Z,7.83
2019-05-20T19:09:22.994Z,6.80
2019-05-20T19:11:51.402Z,7.07
2019-05-20T19:14:19.836Z,6.87
2019-05-20T19:16:48.253Z,6.83
2019-05-20T19:19:16.808Z,7.83
2019-05-20T19:21:45.220Z,7.80
2019-05-20T19:24:13.925Z,6.53
2019-05-20T19:26:42.335Z,7.10
2019-05-20T19:29:10.759Z,7.23
2019-05-20T19:31:39.168Z,7.00
2019-05-20T19:34:07.690Z,7.10
2019-05-20T19:36:36.196Z,6.67
2019-05-20T19:39:07.643Z,7.47
2019-05-20T19:41:36.406Z,6.97
2019-05-20T19:44:04.883Z,6.67
2019-05-20T19:46:33.295Z,6.73
2019-05-20T19:49:02.035Z,7.00
2019-05-20T19:51:30.482Z,7.03
2019-05-20T19:53:58.961Z,7.00
2019-05-20T19:56:27.386Z,6.87
2019-05-20T19:58:55.880Z,7.53
2019-05-20T20:01:24.354Z,8.07
2019-05-20T20:03:52.762Z,7.97
2019-05-20T20:06:21.189Z,6.93
2019-05-20T20:08:49.669Z,8.30
2019-05-20T20:11:18.083Z,9.10
2019-05-20T20:13:46.494Z,7.90
2019-05-20T20:16:17.907Z,7.93
2019-05-20T20:18:45.075Z,7.60
2019-05-20T20:21:13.495Z,9.17
2019-05-20T20:23:42.008Z,7.97
2019-05-20T20:26:10.503Z,7.27
2019-05-20T20:28:38.908Z,8.57
2019-05-20T20:31:07.318Z,7.97
2019-05-20T20:33:35.731Z,8.87
2019-05-20T20:36:04.148Z,8.23
2019-05-20T20:38:32.608Z,9.37
2019-05-20T20:41:01.032Z,11.00
2019-05-20T20:43:32.112Z,8.17
2019-05-20T20:45:59.573Z,8.27
2019-05-20T20:48:27.979Z,9.00
2019-05-20T20:50:57.145Z,7.47
2019-05-20T20:53:25.619Z,7.33
2019-05-20T20:55:54.037Z,8.60
2019-05-20T20:58:22.451Z,7.23
2019-05-20T21:00:50.927Z,7.30
2019-05-20T21:03:19.337Z,7.10
2019-05-20T21:05:47.753Z,7.20
2019-05-20T21:08:16.169Z,8.73
2019-05-20T21:10:44.583Z,9.10
2019-05-20T21:13:12.991Z,8.40
2019-05-20T21:15:41.404Z,8.07
2019-05-20T21:18:09.810Z,9.40
2019-05-20T21:20:38.532Z,8.77
2019-05-20T21:23:06.937Z,8.03
2019-05-20T21:25:35.354Z,7.83
2019-05-20T21:28:03.759Z,8.53
2019-05-20T21:30:32.183Z,8.70
2019-05-20T21:33:08.876Z,8.93
2019-05-20T21:35:30.726Z,8.83
2019-05-20T21:37:59.138Z,8.07
2019-05-20T21:40:27.660Z,10.03
2019-05-20T21:42:56.168Z,7.60
2019-05-20T21:45:24.585Z,7.03
2019-05-20T21:47:52.991Z,8.23
2019-05-20T21:50:21.474Z,8.03
2019-05-20T21:52:49.880Z,7.70
2019-05-20T21:55:18.299Z,8.67
2019-05-20T21:57:46.730Z,9.77
2019-05-20T22:00:22.636Z,9.80
2019-05-20T22:02:51.124Z,8.30
2019-05-20T22:05:19.577Z,8.37
2019-05-20T22:07:47.987Z,9.07
2019-05-20T22:10:16.491Z,10.47
2019-05-20T22:12:44.931Z,11.10
2019-05-20T22:15:13.418Z,9.17
2019-05-20T22:17:41.831Z,10.07
2019-05-20T22:20:10.679Z,8.97
2019-05-20T22:22:43.744Z,9.57
2019-05-20T22:25:12.231Z,8.63
2019-05-20T22:27:40.648Z,12.67
2019-05-20T22:30:09.965Z,9.83
2019-05-20T22:32:38.379Z,12.20
2019-05-20T22:35:07.651Z,13.27
2019-05-20T22:37:36.050Z,11.03
2019-05-20T22:40:06.393Z,9.10
2019-05-20T22:42:34.811Z,8.90
2019-05-20T22:45:04.054Z,8.57
2019-05-20T22:47:32.495Z,9.57
2019-05-20T22:50:00.892Z,8.53
2019-05-20T22:52:29.308Z,8.30
2019-05-20T22:54:57.718Z,11.73
2019-05-20T22:57:26.131Z,9.07
2019-05-20T22:59:54.613Z,9.57
2019-05-20T23:02:23.046Z,10.67
2019-05-20T23:04:51.471Z,8.10
2019-05-20T23:07:19.878Z,9.97
2019-05-20T23:09:48.290Z,9.87
2019-05-20T23:12:16.711Z,8.77
2019-05-20T23:14:45.114Z,10.30
2019-05-20T23:17:13.533Z,8.57
2019-05-20T23:19:42.247Z,9.60
2019-05-20T23:22:10.663Z,10.67
2019-05-20T23:24:39.410Z,9.10
2019-05-20T23:27:07.926Z,8.70
2019-05-20T23:29:36.339Z,10.63
2019-05-20T23:32:04.764Z,8.87
2019-05-20T23:34:33.256Z,8.80
2019-05-20T23:37:01.674Z,8.70
2019-05-20T23:39:30.119Z,9.33
2019-05-20T23:41:58.527Z,8.43
2019-05-20T23:44:26.941Z,8.47
2019-05-20T23:46:55.374Z,11.90
2019-05-20T23:49:23.781Z,10.03
2019-05-20T23:51:52.207Z,10.53
2019-05-20T23:54:20.632Z,10.43
2019-05-20T23:56:49.060Z,11.17
2019-05-20T23:59:17.473Z,10.60
